createdAt,value
2017-12-14T00:02:18.190Z,0.60
2017-12-14T00:04:45.513Z,0.70
2017-12-14T00:07:12.757Z,0.70
2017-12-14T00:09:40.030Z,0.73
2017-12-14T00:12:07.273Z,0.87
2017-12-14T00:14:34.544Z,0.80
2017-12-14T00:17:01.789Z,1.90
2017-12-14T00:19:29.069Z,0.93
2017-12-14T00:21:56.318Z,0.60
2017-12-14T00:24:23.161Z,1.10
2017-12-14T00:26:50.431Z,0.70
2017-12-14T00:29:17.785Z,1.30
2017-12-14T00:31:45.049Z,0.90
2017-12-14T00:34:12.297Z,0.80
2017-12-14T00:36:39.569Z,0.80
2017-12-14T00:39:06.851Z,0.80
2017-12-14T00:41:34.116Z,0.60
2017-12-14T00:44:01.361Z,0.70
2017-12-14T00:46:28.728Z,0.70
2017-12-14T00:48:56.061Z,0.80
2017-12-14T00:51:23.336Z,0.80
2017-12-14T00:53:50.580Z,1.37
2017-12-14T00:56:17.836Z,2.00
2017-12-14T00:58:45.181Z,1.70
2017-12-14T01:01:12.436Z,6.90
2017-12-14T01:03:39.696Z,1.73
2017-12-14T01:06:06.946Z,1.27
2017-12-14T01:08:34.213Z,3.10
2017-12-14T01:11:01.472Z,1.23
2017-12-14T01:13:28.739Z,2.77
2017-12-14T01:15:55.994Z,2.30
2017-12-14T01:18:23.259Z,1.80
2017-12-14T01:20:50.510Z,1.03
2017-12-14T01:23:17.822Z,3.13
2017-12-14T01:25:45.175Z,2.60
2017-12-14T01:28:12.422Z,1.27
2017-12-14T01:30:39.689Z,4.50
2017-12-14T01:33:07.036Z,1.50
2017-12-14T01:35:34.301Z,2.53
2017-12-14T01:38:01.552Z,4.07
2017-12-14T01:40:28.816Z,1.87
2017-12-14T01:42:56.068Z,2.30
2017-12-14T01:45:23.403Z,2.60
2017-12-14T01:47:50.763Z,5.87
2017-12-14T01:50:18.113Z,2.00
2017-12-14T01:52:45.360Z,3.47
2017-12-14T01:55:12.635Z,2.03
2017-12-14T01:57:39.880Z,2.50
2017-12-14T02:00:07.225Z,2.80
2017-12-14T02:02:34.472Z,2.30
2017-12-14T02:05:01.733Z,2.80
2017-12-14T02:07:28.992Z,3.90
2017-12-14T02:09:56.250Z,3.10
2017-12-14T02:12:23.594Z,1.80
2017-12-14T02:14:50.844Z,2.30
2017-12-14T02:17:18.112Z,1.60
2017-12-14T02:19:45.360Z,5.33
2017-12-14T02:22:12.624Z,5.23
2017-12-14T02:24:39.872Z,3.63
2017-12-14T02:27:07.145Z,3.73
2017-12-14T02:29:34.397Z,1.90
2017-12-14T02:32:01.664Z,4.53
2017-12-14T02:34:28.933Z,2.30
2017-12-14T02:36:56.235Z,1.80
2017-12-14T02:39:23.510Z,6.20
2017-12-14T02:41:50.757Z,4.20
2017-12-14T02:44:18.021Z,3.17
2017-12-14T02:46:45.352Z,6.10
2017-12-14T02:49:12.621Z,3.67
2017-12-14T02:51:39.965Z,2.70
2017-12-14T02:54:07.229Z,2.40
2017-12-14T02:56:34.483Z,8.07
2017-12-14T02:59:01.745Z,3.40
2017-12-14T03:01:29.070Z,3.07
2017-12-14T03:03:56.338Z,5.47
2017-12-14T03:06:23.592Z,8.27
2017-12-14T03:08:50.852Z,9.20
2017-12-14T03:11:18.114Z,11.30
2017-12-14T03:13:45.376Z,8.70
2017-12-14T03:16:12.688Z,4.67
2017-12-14T03:18:39.950Z,12.37
2017-12-14T03:21:07.224Z,7.53
2017-12-14T03:23:34.468Z,6.60
2017-12-14T03:26:01.737Z,5.57
2017-12-14T03:28:29.065Z,6.17
2017-12-14T03:30:56.330Z,6.73
2017-12-14T03:33:23.578Z,3.83
2017-12-14T03:35:50.920Z,3.47
2017-12-14T03:38:18.173Z,5.00
2017-12-14T03:40:45.441Z,3.97
2017-12-14T03:43:12.697Z,2.20
2017-12-14T03:45:39.965Z,2.93
2017-12-14T03:48:07.291Z,2.30
2017-12-14T03:50:34.652Z,2.63
2017-12-14T03:53:02.000Z,1.33
2017-12-14T03:55:29.265Z,1.03
2017-12-14T03:57:56.522Z,1.63
2017-12-14T04:02:56.524Z,1.60
2017-12-14T04:05:23.789Z,1.57
2017-12-14T04:07:51.157Z,4.23
2017-12-14T04:10:18.405Z,2.30
2017-12-14T04:12:45.672Z,2.43
2017-12-14T04:15:13.020Z,1.73
2017-12-14T04:17:40.289Z,1.20
2017-12-14T04:20:07.533Z,1.43
2017-12-14T04:22:34.883Z,3.13
2017-12-14T04:25:02.129Z,3.03
2017-12-14T04:27:29.397Z,1.00
2017-12-14T04:29:56.716Z,1.93
2017-12-14T04:32:23.985Z,1.60
2017-12-14T04:34:51.232Z,1.50
2017-12-14T04:37:18.502Z,1.73
2017-12-14T04:39:45.754Z,5.50
2017-12-14T04:42:13.034Z,0.90
2017-12-14T04:44:40.282Z,0.93
2017-12-14T04:47:07.528Z,1.20
2017-12-14T04:49:34.797Z,1.80
2017-12-14T04:52:02.054Z,1.70
2017-12-14T04:54:29.320Z,3.90
2017-12-14T04:56:56.566Z,1.67
2017-12-14T04:59:23.833Z,4.40
2017-12-14T05:01:51.080Z,1.73
2017-12-14T05:04:18.349Z,2.83
2017-12-14T05:06:45.644Z,0.77
2017-12-14T05:09:12.914Z,1.13
2017-12-14T05:11:40.160Z,5.93
2017-12-14T05:14:07.425Z,1.10
2017-12-14T05:16:34.756Z,3.80
2017-12-14T05:19:02.033Z,3.17
2017-12-14T05:21:29.276Z,1.50
2017-12-14T05:23:56.528Z,4.23
2017-12-14T05:26:23.801Z,5.03
2017-12-14T05:28:51.040Z,1.23
2017-12-14T05:31:18.316Z,6.97
2017-12-14T05:33:45.561Z,1.00
2017-12-14T05:36:12.825Z,5.30
2017-12-14T05:38:40.145Z,3.33
2017-12-14T05:41:07.413Z,2.53
2017-12-14T05:43:34.744Z,3.57
2017-12-14T05:46:02.108Z,6.47
2017-12-14T05:48:29.369Z,5.80
2017-12-14T05:50:56.712Z,4.60
2017-12-14T05:53:23.967Z,6.23
2017-12-14T05:55:51.208Z,2.30
2017-12-14T05:58:18.480Z,5.77
2017-12-14T06:00:45.828Z,4.60
2017-12-14T06:03:13.096Z,7.93
2017-12-14T06:05:40.352Z,4.40
2017-12-14T06:08:07.611Z,8.90
2017-12-14T06:10:34.865Z,5.80
2017-12-14T06:13:02.206Z,4.17
2017-12-14T06:15:29.456Z,11.97
2017-12-14T06:17:56.724Z,4.77
2017-12-14T06:20:23.972Z,6.60
2017-12-14T06:22:51.312Z,5.30
2017-12-14T06:25:18.566Z,5.80
2017-12-14T06:27:45.832Z,2.60
2017-12-14T06:30:13.087Z,2.70
2017-12-14T06:32:40.360Z,7.10
2017-12-14T06:35:07.601Z,3.70
2017-12-14T06:37:34.852Z,5.93
2017-12-14T06:40:02.123Z,3.10
2017-12-14T06:42:29.367Z,5.60
2017-12-14T06:44:56.633Z,6.50
2017-12-14T06:47:23.889Z,10.63
2017-12-14T06:49:51.167Z,8.70
2017-12-14T06:52:18.412Z,8.43
2017-12-14T06:54:45.704Z,8.23
2017-12-14T06:57:12.957Z,8.67
2017-12-14T06:59:40.226Z,4.20
2017-12-14T07:02:07.472Z,6.20
2017-12-14T07:04:34.748Z,7.13
2017-12-14T07:07:01.993Z,4.03
2017-12-14T07:09:29.265Z,5.40
2017-12-14T07:11:56.513Z,3.80
2017-12-14T07:14:23.764Z,8.70
2017-12-14T07:16:51.129Z,4.80
2017-12-14T07:19:18.345Z,4.03
2017-12-14T07:21:45.613Z,4.70
2017-12-14T07:24:12.860Z,7.30
2017-12-14T07:26:40.129Z,8.40
2017-12-14T07:29:07.414Z,9.00
2017-12-14T07:31:35.426Z,9.73
2017-12-14T07:34:02.805Z,2.67
2017-12-14T07:36:30.059Z,7.20
2017-12-14T07:38:57.314Z,9.90
2017-12-14T07:41:24.579Z,4.43
2017-12-14T07:43:57.717Z,6.77
2017-12-14T07:46:29.911Z,6.70
2017-12-14T07:49:03.102Z,9.17
2017-12-14T07:51:30.369Z,5.30
2017-12-14T07:53:57.620Z,16.73
2017-12-14T07:56:24.897Z,4.77
2017-12-14T07:58:52.137Z,5.03
2017-12-14T08:01:19.384Z,7.50
2017-12-14T08:03:46.656Z,8.30
2017-12-14T08:06:13.900Z,10.60
2017-12-14T08:08:41.174Z,11.40
2017-12-14T08:11:08.416Z,8.00
2017-12-14T08:13:35.751Z,11.50
2017-12-14T08:16:03.002Z,19.30
2017-12-14T08:18:30.345Z,10.77
2017-12-14T08:20:57.592Z,9.20
2017-12-14T08:23:24.861Z,5.30
2017-12-14T08:25:52.113Z,7.07
2017-12-14T08:28:19.384Z,11.10
2017-12-14T08:30:46.637Z,10.47
2017-12-14T08:33:13.885Z,6.90
2017-12-14T08:35:41.158Z,7.50
2017-12-14T08:38:08.400Z,7.67
2017-12-14T08:40:35.669Z,9.00
2017-12-14T08:43:02.916Z,7.70
2017-12-14T08:45:30.179Z,7.23
2017-12-14T08:47:57.439Z,11.50
2017-12-14T08:50:24.918Z,10.17
2017-12-14T08:52:52.200Z,9.37
2017-12-14T08:55:19.474Z,9.13
2017-12-14T08:57:46.724Z,15.43
2017-12-14T09:00:13.982Z,5.03
2017-12-14T09:02:41.316Z,3.77
2017-12-14T09:05:08.563Z,3.77
2017-12-14T09:07:35.840Z,2.73
2017-12-14T09:10:03.080Z,5.40
2017-12-14T09:12:30.349Z,6.73
2017-12-14T09:14:57.648Z,6.13
2017-12-14T09:17:24.860Z,6.63
2017-12-14T09:19:52.113Z,6.93
2017-12-14T09:22:19.380Z,5.53
2017-12-14T09:24:46.629Z,3.30
2017-12-14T09:27:13.878Z,6.70
2017-12-14T09:29:41.157Z,11.13
2017-12-14T09:32:08.407Z,7.33
2017-12-14T09:34:35.669Z,5.70
2017-12-14T09:37:02.920Z,6.70
2017-12-14T09:39:30.199Z,9.00
2017-12-14T09:41:57.441Z,7.17
2017-12-14T09:44:24.713Z,5.87
2017-12-14T09:46:51.975Z,5.73
2017-12-14T09:49:19.236Z,7.67
2017-12-14T09:51:46.492Z,5.50
2017-12-14T09:54:13.756Z,8.00
2017-12-14T09:56:41.009Z,5.97
2017-12-14T09:59:08.274Z,4.63
2017-12-14T10:01:35.534Z,4.90
2017-12-14T10:04:02.792Z,6.60
2017-12-14T10:06:30.037Z,8.50
2017-12-14T10:08:57.312Z,7.40
2017-12-14T10:11:24.563Z,6.10
2017-12-14T10:13:51.808Z,7.63
2017-12-14T10:16:19.077Z,4.30
2017-12-14T10:18:46.333Z,10.30
2017-12-14T10:21:13.596Z,6.43
2017-12-14T10:23:40.848Z,7.70
2017-12-14T10:26:08.113Z,7.83
2017-12-14T10:28:35.377Z,10.77
2017-12-14T10:31:02.645Z,12.30
2017-12-14T10:33:30.042Z,8.17
2017-12-14T10:35:57.349Z,8.27
2017-12-14T10:38:24.606Z,10.53
2017-12-14T10:40:51.880Z,10.50
2017-12-14T10:43:19.284Z,20.50
2017-12-14T10:45:46.628Z,10.53
2017-12-14T10:48:13.885Z,14.03
2017-12-14T10:50:41.145Z,13.03
2017-12-14T10:53:08.417Z,17.50
2017-12-14T10:55:35.664Z,10.53
2017-12-14T10:58:02.940Z,18.60
2017-12-14T11:00:35.968Z,10.03
2017-12-14T11:03:03.236Z,11.07
2017-12-14T11:05:30.498Z,10.53
2017-12-14T11:07:57.765Z,7.17
2017-12-14T11:10:25.024Z,12.53
2017-12-14T11:12:52.300Z,17.53
2017-12-14T11:15:19.552Z,20.00
2017-12-14T11:17:46.906Z,11.23
2017-12-14T11:20:14.160Z,22.00
2017-12-14T11:22:41.438Z,8.33
2017-12-14T11:25:08.693Z,8.40
2017-12-14T11:27:35.960Z,9.70
2017-12-14T11:30:03.277Z,20.57
2017-12-14T11:32:30.529Z,10.13
2017-12-14T11:34:57.796Z,30.30
2017-12-14T11:37:25.056Z,10.93
2017-12-14T11:39:52.321Z,7.33
2017-12-14T11:42:19.569Z,9.17
2017-12-14T11:44:46.842Z,10.33
2017-12-14T11:47:14.093Z,16.67
2017-12-14T11:49:41.405Z,10.60
2017-12-14T11:52:08.661Z,10.93
2017-12-14T11:54:35.933Z,14.13
2017-12-14T11:57:03.184Z,7.43
2017-12-14T11:59:30.453Z,11.93
2017-12-14T12:01:57.708Z,13.50
2017-12-14T12:04:24.985Z,10.43
2017-12-14T12:06:52.236Z,10.90
2017-12-14T12:09:19.518Z,9.30
2017-12-14T12:11:46.760Z,7.87
2017-12-14T12:14:14.037Z,7.60
2017-12-14T12:16:41.305Z,11.80
2017-12-14T12:19:08.557Z,9.40
2017-12-14T12:21:36.000Z,7.87
2017-12-14T12:24:03.292Z,5.50
2017-12-14T12:26:30.557Z,8.50
2017-12-14T12:28:57.798Z,7.23
2017-12-14T12:31:25.077Z,5.93
2017-12-14T12:33:52.334Z,6.20
2017-12-14T12:36:19.592Z,2.37
2017-12-14T12:38:46.849Z,2.10
2017-12-14T12:41:14.109Z,4.37
2017-12-14T12:43:41.352Z,4.10
2017-12-14T12:46:08.617Z,3.93
2017-12-14T12:48:35.873Z,4.53
2017-12-14T12:51:03.141Z,3.07
2017-12-14T12:53:30.389Z,3.47
2017-12-14T12:55:57.636Z,4.97
2017-12-14T12:58:24.901Z,2.87
2017-12-14T13:00:52.160Z,2.03
2017-12-14T13:03:19.433Z,3.40
2017-12-14T13:05:46.676Z,1.73
2017-12-14T13:08:13.939Z,1.70
2017-12-14T13:10:41.229Z,3.33
2017-12-14T13:13:08.452Z,2.60
2017-12-14T13:15:35.710Z,4.80
2017-12-14T13:18:02.970Z,3.70
2017-12-14T13:20:30.218Z,4.60
2017-12-14T13:22:57.477Z,2.63
2017-12-14T13:25:24.731Z,4.80
2017-12-14T13:27:51.997Z,2.37
2017-12-14T13:30:20.221Z,4.00
2017-12-14T13:32:47.499Z,5.80
2017-12-14T13:35:14.742Z,10.40
2017-12-14T13:37:41.989Z,7.10
2017-12-14T13:40:09.254Z,6.60
2017-12-14T13:42:36.588Z,3.37
2017-12-14T13:45:03.855Z,5.70
2017-12-14T13:47:31.206Z,5.77
2017-12-14T13:49:58.464Z,4.97
2017-12-14T13:52:25.809Z,4.10
2017-12-14T13:54:53.170Z,6.60
2017-12-14T13:57:20.424Z,4.47
2017-12-14T13:59:47.692Z,7.60
2017-12-14T14:02:14.941Z,5.13
2017-12-14T14:04:42.281Z,6.10
2017-12-14T14:07:09.656Z,4.40
2017-12-14T14:09:36.916Z,5.40
2017-12-14T14:12:04.170Z,3.77
2017-12-14T14:14:31.432Z,4.53
2017-12-14T14:16:58.676Z,9.37
2017-12-14T14:19:25.965Z,6.27
2017-12-14T14:21:53.216Z,5.70
2017-12-14T14:24:20.461Z,7.27
2017-12-14T14:26:47.852Z,4.60
2017-12-14T14:29:15.136Z,7.17
2017-12-14T14:31:42.477Z,2.57
2017-12-14T14:34:09.729Z,4.23
2017-12-14T14:36:36.993Z,5.30
2017-12-14T14:39:04.236Z,4.53
2017-12-14T14:41:31.549Z,4.40
2017-12-14T14:43:58.796Z,4.40
2017-12-14T14:46:26.076Z,1.47
2017-12-14T14:48:53.328Z,2.40
2017-12-14T14:51:20.597Z,7.10
2017-12-14T14:53:47.856Z,2.47
2017-12-14T14:56:15.268Z,1.53
2017-12-14T14:58:42.465Z,3.70
2017-12-14T15:01:09.745Z,7.60
2017-12-14T15:03:36.988Z,1.60
2017-12-14T15:06:04.240Z,1.37
2017-12-14T15:08:31.505Z,1.10
2017-12-14T15:10:58.758Z,1.90
2017-12-14T15:13:26.092Z,2.03
2017-12-14T15:15:53.353Z,5.10
2017-12-14T15:18:20.622Z,9.30
2017-12-14T15:20:47.864Z,2.63
2017-12-14T15:23:15.164Z,2.80
2017-12-14T15:25:42.409Z,2.60
2017-12-14T15:28:09.669Z,3.13
2017-12-14T15:30:36.917Z,5.20
2017-12-14T15:33:04.198Z,3.30
2017-12-14T15:35:31.440Z,5.50
2017-12-14T15:37:58.724Z,4.50
2017-12-14T15:40:26.081Z,6.40
2017-12-14T15:42:53.336Z,7.60
2017-12-14T15:45:20.600Z,5.23
2017-12-14T15:47:47.850Z,4.97
2017-12-14T15:50:15.196Z,3.87
2017-12-14T15:52:42.444Z,3.90
2017-12-14T15:55:09.775Z,4.67
2017-12-14T15:57:37.024Z,4.40
2017-12-14T16:00:04.289Z,2.67
2017-12-14T16:02:31.570Z,6.47
2017-12-14T16:04:58.925Z,4.70
2017-12-14T16:07:26.173Z,3.03
2017-12-14T16:09:53.432Z,4.40
2017-12-14T16:12:20.684Z,5.13
2017-12-14T16:14:47.952Z,5.23
2017-12-14T16:17:15.200Z,3.07
2017-12-14T16:19:42.475Z,3.47
2017-12-14T16:22:09.720Z,2.37
2017-12-14T16:24:36.988Z,3.17
2017-12-14T16:27:04.338Z,7.90
2017-12-14T16:29:31.541Z,6.60
2017-12-14T16:31:59.092Z,3.57
2017-12-14T16:34:26.389Z,5.70
2017-12-14T16:36:53.647Z,3.37
2017-12-14T16:39:20.887Z,4.03
2017-12-14T16:41:48.231Z,8.77
2017-12-14T16:44:15.480Z,2.43
2017-12-14T16:46:42.813Z,3.83
2017-12-14T16:49:10.064Z,5.23
2017-12-14T16:51:37.328Z,4.47
2017-12-14T16:54:04.583Z,9.60
2017-12-14T16:56:31.847Z,7.17
2017-12-14T16:58:59.095Z,5.73
2017-12-14T17:01:26.366Z,8.27
2017-12-14T17:03:53.613Z,4.97
2017-12-14T17:06:20.883Z,11.00
2017-12-14T17:08:48.282Z,4.23
2017-12-14T17:11:15.552Z,5.80
2017-12-14T17:13:42.811Z,3.67
2017-12-14T17:16:10.084Z,5.07
2017-12-14T17:18:37.359Z,7.00
2017-12-14T17:21:04.605Z,7.47
2017-12-14T17:23:31.873Z,7.90
2017-12-14T17:25:59.124Z,13.13
2017-12-14T17:28:26.390Z,3.70
2017-12-14T17:30:53.638Z,6.83
2017-12-14T17:33:20.974Z,7.03
2017-12-14T17:35:48.327Z,7.53
2017-12-14T17:38:15.590Z,8.20
2017-12-14T17:40:42.842Z,6.57
2017-12-14T17:43:10.104Z,6.17
2017-12-14T17:45:37.350Z,5.03
2017-12-14T17:48:04.628Z,13.10
2017-12-14T17:50:31.880Z,12.43
2017-12-14T17:52:59.160Z,6.80
2017-12-14T17:55:26.405Z,9.50
2017-12-14T17:57:53.667Z,4.10
2017-12-14T18:00:21.076Z,7.10
2017-12-14T18:02:48.297Z,7.30
2017-12-14T18:05:16.548Z,8.67
2017-12-14T18:07:43.835Z,8.27
2017-12-14T18:10:11.201Z,10.47
2017-12-14T18:12:38.452Z,4.20
2017-12-14T18:15:05.721Z,7.00
2017-12-14T18:17:33.064Z,9.00
2017-12-14T18:20:00.420Z,13.53
2017-12-14T18:22:27.670Z,9.67
2017-12-14T18:24:54.937Z,7.87
2017-12-14T18:27:22.283Z,6.20
2017-12-14T18:29:49.548Z,5.97
2017-12-14T18:32:16.796Z,6.10
2017-12-14T18:34:44.054Z,9.43
2017-12-14T18:37:11.316Z,7.90
2017-12-14T18:39:38.644Z,6.03
2017-12-14T18:42:05.915Z,10.53
2017-12-14T18:44:33.160Z,7.40
2017-12-14T18:47:00.424Z,7.57
2017-12-14T18:49:27.676Z,6.67
2017-12-14T18:51:54.940Z,10.03
2017-12-14T18:54:22.268Z,7.50
2017-12-14T18:56:49.548Z,8.33
2017-12-14T18:59:16.786Z,6.63
2017-12-14T19:01:44.054Z,5.83
2017-12-14T19:04:11.332Z,5.53
2017-12-14T19:06:38.608Z,12.03
2017-12-14T19:09:05.895Z,5.57
2017-12-14T19:11:33.209Z,6.60
2017-12-14T19:14:00.419Z,6.73
2017-12-14T19:16:27.692Z,7.60
2017-12-14T19:18:54.937Z,6.70
2017-12-14T19:21:22.194Z,7.70
2017-12-14T19:23:49.510Z,10.10
2017-12-14T19:26:16.769Z,12.20
2017-12-14T19:28:44.037Z,8.70
2017-12-14T19:31:11.288Z,14.50
2017-12-14T19:33:38.629Z,8.47
2017-12-14T19:36:05.990Z,10.47
2017-12-14T19:38:33.341Z,8.60
2017-12-14T19:41:00.607Z,13.57
2017-12-14T19:43:27.876Z,10.97
2017-12-14T19:45:55.124Z,13.07
2017-12-14T19:48:22.397Z,17.43
2017-12-14T19:50:49.657Z,10.23
2017-12-14T19:53:16.926Z,8.20
2017-12-14T19:55:44.220Z,11.73
2017-12-14T19:58:11.877Z,12.10
2017-12-14T20:00:39.137Z,12.60
2017-12-14T20:03:06.415Z,11.07
2017-12-14T20:05:33.665Z,7.47
2017-12-14T20:08:00.912Z,9.70
2017-12-14T20:10:28.181Z,11.17
2017-12-14T20:12:55.432Z,13.87
2017-12-14T20:15:22.703Z,10.43
2017-12-14T20:17:49.965Z,16.27
2017-12-14T20:20:17.260Z,19.33
2017-12-14T20:22:44.512Z,11.30
2017-12-14T20:25:11.786Z,20.90
2017-12-14T20:27:39.046Z,23.03
2017-12-14T20:30:06.316Z,14.83
2017-12-14T20:32:33.573Z,24.83
2017-12-14T20:35:00.848Z,19.73
2017-12-14T20:37:28.104Z,18.53
2017-12-14T20:39:55.380Z,17.40
2017-12-14T20:42:22.637Z,17.30
2017-12-14T20:44:50.005Z,17.60
2017-12-14T20:47:17.261Z,15.17
2017-12-14T20:49:44.524Z,18.00
2017-12-14T20:52:11.780Z,11.97
2017-12-14T20:54:39.116Z,18.57
2017-12-14T20:57:06.472Z,17.50
2017-12-14T20:59:33.833Z,13.70
2017-12-14T21:02:01.109Z,13.23
2017-12-14T21:04:28.432Z,10.20
2017-12-14T21:06:55.704Z,13.00
2017-12-14T21:09:22.960Z,12.40
2017-12-14T21:11:50.238Z,10.70
2017-12-14T21:14:17.497Z,32.00
2017-12-14T21:16:44.780Z,13.40
2017-12-14T21:19:12.040Z,10.53
2017-12-14T21:21:39.309Z,10.33
2017-12-14T21:24:06.565Z,8.43
2017-12-14T21:26:33.833Z,7.63
2017-12-14T21:29:01.092Z,13.00
2017-12-14T21:31:28.372Z,11.40
2017-12-14T21:33:55.622Z,11.37
2017-12-14T21:36:22.891Z,8.70
2017-12-14T21:38:50.148Z,10.83
2017-12-14T21:41:17.425Z,12.03
2017-12-14T21:43:44.688Z,9.77
2017-12-14T21:46:11.935Z,11.13
2017-12-14T21:48:39.199Z,8.63
2017-12-14T21:51:06.453Z,9.00
2017-12-14T21:53:33.721Z,7.87
2017-12-14T21:56:00.977Z,9.93
2017-12-14T21:58:28.253Z,8.90
2017-12-14T22:00:55.496Z,9.43
2017-12-14T22:03:22.756Z,5.67
2017-12-14T22:05:50.077Z,4.40
2017-12-14T22:08:17.344Z,6.93
2017-12-14T22:10:44.594Z,7.13
2017-12-14T22:13:11.852Z,6.57
2017-12-14T22:15:39.109Z,7.77
2017-12-14T22:18:06.944Z,5.10
2017-12-14T22:20:34.192Z,2.90
2017-12-14T22:23:01.456Z,2.77
2017-12-14T22:25:28.721Z,2.30
2017-12-14T22:27:56.081Z,2.50
2017-12-14T22:30:23.331Z,3.10
2017-12-14T22:32:50.605Z,3.13
2017-12-14T22:35:17.860Z,2.27
2017-12-14T22:37:45.099Z,1.60
2017-12-14T22:40:12.364Z,2.03
2017-12-14T22:42:39.615Z,2.00
2017-12-14T22:45:06.887Z,4.13
2017-12-14T22:47:34.128Z,3.20
2017-12-14T22:50:01.395Z,2.80
2017-12-14T22:52:28.658Z,3.27
2017-12-14T22:54:55.920Z,4.43
2017-12-14T22:57:23.174Z,4.30
2017-12-14T22:59:50.441Z,3.90
2017-12-14T23:02:17.684Z,4.83
2017-12-14T23:04:44.954Z,6.07
2017-12-14T23:07:12.236Z,4.50
2017-12-14T23:09:39.500Z,7.33
2017-12-14T23:12:06.749Z,8.07
2017-12-14T23:14:34.012Z,5.87
2017-12-14T23:17:01.258Z,7.00
2017-12-14T23:19:28.524Z,6.00
2017-12-14T23:21:55.772Z,6.30
2017-12-14T23:24:23.048Z,6.40
2017-12-14T23:26:50.356Z,5.13
2017-12-14T23:29:17.607Z,5.40
2017-12-14T23:31:44.869Z,5.53
2017-12-14T23:34:12.116Z,8.80
2017-12-14T23:36:39.388Z,5.20
2017-12-14T23:39:06.632Z,8.17
2017-12-14T23:41:33.901Z,6.37
2017-12-14T23:44:01.144Z,6.70
2017-12-14T23:46:28.407Z,7.27
2017-12-14T23:48:55.656Z,6.47
2017-12-14T23:51:22.923Z,4.77
2017-12-14T23:53:50.172Z,7.80
2017-12-14T23:56:17.444Z,7.30
2017-12-14T23:58:44.756Z,5.70
